createdAt,value
2022-08-28T00:04:14.613Z,91.27
2022-08-28T00:09:18.949Z,92.10
2022-08-28T00:14:22.190Z,92.73
2022-08-28T00:19:25.580Z,93.47
2022-08-28T00:24:31.243Z,93.40
2022-08-28T00:29:34.050Z,93.95
2022-08-28T00:34:37.188Z,93.65
2022-08-28T00:39:41.399Z,93.74
2022-08-28T00:44:45.280Z,93.15
2022-08-28T00:49:52.792Z,93.34
2022-08-28T00:55:07.867Z,92.99
2022-08-28T01:00:14.017Z,92.30
2022-08-28T01:05:18.327Z,93.45
2022-08-28T01:10:25.816Z,93.09
2022-08-28T01:15:32.704Z,94.10
2022-08-28T01:20:37.841Z,93.74
2022-08-28T01:25:43.288Z,93.20
2022-08-28T01:30:48.869Z,93.38
2022-08-28T01:35:51.766Z,94.13
2022-08-28T01:40:57.800Z,94.00
2022-08-28T01:46:04.357Z,95.41
2022-08-28T01:51:07.278Z,94.41
2022-08-28T01:56:14.770Z,94.04
2022-08-28T02:01:21.083Z,95.01
2022-08-28T02:06:25.692Z,95.75
2022-08-28T02:11:30.651Z,94.98
2022-08-28T02:16:33.612Z,95.03
2022-08-28T02:21:36.503Z,95.10
2022-08-28T02:26:40.770Z,95.54
2022-08-28T02:31:43.586Z,95.17
2022-08-28T02:36:46.522Z,94.82
2022-08-28T02:41:50.712Z,95.42
2022-08-28T02:46:53.780Z,95.46
2022-08-28T02:51:57.647Z,95.34
2022-08-28T02:57:02.186Z,95.57
2022-08-28T03:02:07.208Z,94.86
2022-08-28T03:07:12.610Z,94.46
2022-08-28T03:12:17.061Z,94.26
2022-08-28T03:17:20.359Z,93.73
2022-08-28T03:22:43.855Z,94.73
2022-08-28T03:27:48.080Z,94.76
2022-08-28T03:32:51.388Z,94.82
2022-08-28T03:37:54.209Z,95.68
2022-08-28T03:42:58.557Z,96.18
2022-08-28T03:48:03.807Z,95.73
2022-08-28T03:53:07.258Z,95.89
2022-08-28T03:58:11.887Z,96.46
2022-08-28T04:03:22.186Z,97.05
2022-08-28T04:08:25.296Z,97.17
2022-08-28T04:13:30.403Z,97.61
2022-08-28T04:18:33.218Z,97.83
2022-08-28T04:23:36.600Z,97.78
2022-08-28T04:28:40.879Z,97.74
2022-08-28T04:33:43.756Z,98.26
2022-08-28T04:38:46.998Z,97.84
2022-08-28T04:43:52.775Z,97.25
2022-08-28T04:48:56.688Z,96.65
2022-08-28T04:54:00.117Z,96.09
2022-08-28T04:59:04.943Z,95.40
2022-08-28T05:04:07.998Z,95.26
2022-08-28T05:09:10.818Z,94.72
2022-08-28T05:14:16.510Z,94.75
2022-08-28T05:19:22.006Z,95.08
2022-08-28T05:24:25.336Z,94.66
2022-08-28T05:29:29.773Z,93.65
2022-08-28T05:34:32.756Z,93.59
2022-08-28T05:39:35.744Z,92.30
2022-08-28T05:44:40.009Z,92.49
2022-08-28T05:49:43.002Z,90.55
2022-08-28T05:54:45.868Z,89.37
2022-08-28T05:59:50.255Z,88.54
2022-08-28T06:04:53.714Z,87.16
2022-08-28T06:09:56.589Z,86.26
2022-08-28T06:15:00.912Z,84.40
2022-08-28T06:20:04.298Z,80.91
2022-08-28T06:25:09.312Z,78.96
2022-08-28T06:30:14.180Z,76.56
2022-08-28T06:35:17.304Z,75.22
2022-08-28T06:40:20.196Z,70.62
2022-08-28T06:45:24.570Z,63.23
2022-08-28T06:50:27.376Z,54.97
2022-08-28T06:55:30.181Z,46.27
2022-08-28T07:00:35.631Z,44.00
2022-08-28T07:05:38.537Z,41.09
2022-08-28T07:10:41.353Z,42.52
2022-08-28T07:15:45.930Z,46.73
2022-08-28T07:20:57.626Z,45.70
2022-08-28T07:26:03.508Z,39.43
2022-08-28T07:31:10.804Z,37.43
2022-08-28T07:36:16.077Z,36.03
2022-08-28T07:41:35.469Z,36.89
2022-08-28T07:46:41.003Z,36.31
2022-08-28T07:51:46.693Z,38.57
2022-08-28T07:56:49.916Z,44.22
2022-08-28T08:01:54.477Z,43.44
2022-08-28T08:06:58.280Z,45.57
2022-08-28T08:12:01.293Z,48.37
2022-08-28T08:17:07.364Z,51.52
2022-08-28T08:22:10.776Z,51.69
2022-08-28T08:27:13.633Z,51.38
2022-08-28T08:32:17.910Z,50.95
2022-08-28T08:37:20.710Z,51.47
2022-08-28T08:42:27.405Z,52.12
2022-08-28T08:47:39.339Z,52.94
2022-08-28T08:52:53.144Z,53.95
2022-08-28T08:58:06.076Z,54.47
2022-08-28T09:03:16.044Z,54.56
2022-08-28T09:08:27.600Z,53.58
2022-08-28T09:13:41.556Z,53.32
2022-08-28T09:18:48.429Z,55.79
2022-08-28T09:23:53.330Z,53.32
2022-08-28T09:29:05.194Z,48.95
2022-08-28T09:34:23.832Z,50.89
2022-08-28T09:39:29.173Z,48.76
2022-08-28T09:44:32.514Z,49.88
2022-08-28T09:49:37.006Z,50.76
2022-08-28T09:54:44.720Z,50.50
2022-08-28T09:59:47.403Z,52.08
2022-08-28T10:04:59.961Z,50.73
2022-08-28T10:10:22.148Z,51.22
2022-08-28T10:15:31.239Z,48.89
2022-08-28T10:20:47.912Z,49.80
2022-08-28T10:25:57.978Z,49.38
2022-08-28T10:31:08.243Z,48.42
2022-08-28T10:36:33.603Z,50.40
2022-08-28T10:41:44.266Z,52.53
2022-08-28T10:46:51.953Z,51.96
2022-08-28T10:52:02.310Z,51.75
2022-08-28T10:57:25.424Z,51.53
2022-08-28T11:02:31.032Z,51.86
2022-08-28T11:07:39.318Z,50.97
2022-08-28T11:12:44.318Z,51.15
2022-08-28T11:17:51.732Z,49.81
2022-08-28T11:23:00.576Z,50.39
2022-08-28T11:28:17.627Z,50.14
2022-08-28T11:33:39.945Z,50.09
2022-08-28T11:39:06.053Z,50.55
2022-08-28T11:44:28.222Z,48.90
2022-08-28T11:49:44.117Z,48.09
2022-08-28T11:54:59.992Z,48.03
2022-08-28T12:00:11.505Z,46.88
2022-08-28T12:05:45.901Z,47.38
2022-08-28T12:10:59.588Z,50.02
2022-08-28T12:16:07.552Z,51.39
2022-08-28T12:21:17.576Z,50.49
2022-08-28T12:26:26.166Z,49.96
2022-08-28T12:32:15.100Z,52.92
2022-08-28T12:37:27.320Z,52.81
2022-08-28T12:42:36.449Z,49.21
2022-08-28T12:47:44.562Z,50.63
2022-08-28T12:52:50.629Z,49.85
2022-08-28T12:57:55.511Z,52.24
2022-08-28T13:02:58.629Z,52.08
2022-08-28T13:08:05.315Z,51.17
2022-08-28T13:13:19.467Z,49.67
2022-08-28T13:18:46.305Z,50.85
2022-08-28T13:23:51.191Z,49.68
2022-08-28T13:28:55.942Z,48.64
2022-08-28T13:34:11.243Z,47.28
2022-08-28T13:39:16.307Z,46.41
2022-08-28T13:44:30.457Z,44.82
2022-08-28T13:49:34.115Z,44.16
2022-08-28T13:54:37.744Z,45.18
2022-08-28T13:59:45.823Z,44.82
2022-08-28T14:04:48.658Z,43.13
2022-08-28T14:09:55.981Z,43.79
2022-08-28T14:15:00.401Z,44.50
2022-08-28T14:20:03.745Z,44.76
2022-08-28T14:25:09.386Z,47.13
2022-08-28T14:30:14.602Z,47.82
2022-08-28T14:35:17.459Z,47.38
2022-08-28T14:40:20.681Z,45.83
2022-08-28T14:45:24.899Z,44.76
2022-08-28T14:50:28.005Z,44.47
2022-08-28T14:55:30.963Z,44.92
2022-08-28T15:00:40.539Z,44.79
2022-08-28T15:05:43.857Z,45.74
2022-08-28T15:10:48.520Z,48.85
2022-08-28T15:16:02.350Z,49.48
2022-08-28T15:21:07.610Z,51.47
2022-08-28T15:26:15.152Z,52.67
2022-08-28T15:31:19.585Z,53.80
2022-08-28T15:36:23.275Z,53.47
2022-08-28T15:41:26.332Z,53.48
2022-08-28T15:46:33.650Z,53.44
2022-08-28T15:51:36.944Z,54.80
2022-08-28T15:56:41.561Z,53.84
2022-08-28T16:01:45.914Z,54.86
2022-08-28T16:06:48.913Z,55.00
2022-08-28T16:11:59.636Z,55.74
2022-08-28T16:17:05.771Z,54.14
2022-08-28T16:22:15.925Z,53.74
2022-08-28T16:27:19.035Z,53.61
2022-08-28T16:32:23.853Z,54.58
2022-08-28T16:37:37.731Z,56.36
2022-08-28T16:42:51.434Z,57.52
2022-08-28T16:47:56.499Z,57.95
2022-08-28T16:53:03.532Z,60.23
2022-08-28T16:58:09.313Z,62.06
2022-08-28T17:03:14.140Z,62.06
2022-08-28T17:08:18.582Z,63.24
2022-08-28T17:13:21.508Z,63.79
2022-08-28T17:18:25.813Z,63.78
2022-08-28T17:23:28.661Z,64.29
2022-08-28T17:28:32.167Z,64.68
2022-08-28T17:33:37.064Z,64.95
2022-08-28T17:38:40.781Z,64.69
2022-08-28T17:43:44.267Z,66.63
2022-08-28T17:48:56.107Z,66.75
2022-08-28T17:53:59.406Z,67.86
2022-08-28T17:59:04.284Z,67.63
2022-08-28T18:04:08.948Z,68.02
2022-08-28T18:09:12.002Z,67.64
2022-08-28T18:14:14.781Z,68.23
2022-08-28T18:19:19.029Z,68.70
2022-08-28T18:24:22.078Z,68.81
2022-08-28T18:29:25.058Z,69.45
2022-08-28T18:34:30.014Z,70.05
2022-08-28T18:39:35.738Z,70.53
2022-08-28T18:44:38.634Z,71.72
2022-08-28T18:49:43.194Z,71.88
2022-08-28T18:54:46.124Z,71.34
2022-08-28T18:59:50.588Z,72.74
2022-08-28T19:04:54.912Z,72.93
2022-08-28T19:10:01.046Z,72.22
2022-08-28T19:15:04.385Z,73.84
2022-08-28T19:20:12.747Z,73.98
2022-08-28T19:25:27.408Z,75.19
2022-08-28T19:30:34.469Z,75.93
2022-08-28T19:35:38.987Z,77.55
2022-08-28T19:40:42.987Z,77.78
2022-08-28T19:45:46.800Z,79.42
2022-08-28T19:51:01.907Z,80.86
2022-08-28T19:56:06.137Z,82.06
2022-08-28T20:01:09.495Z,82.77
2022-08-28T20:06:13.860Z,83.71
2022-08-28T20:11:19.572Z,84.10
2022-08-28T20:16:22.599Z,83.79
2022-08-28T20:21:37.238Z,85.45
2022-08-28T20:26:41.593Z,85.53
2022-08-28T20:31:47.926Z,86.40
2022-08-28T20:36:52.587Z,85.27
2022-08-28T20:41:55.603Z,86.05
2022-08-28T20:46:58.761Z,86.84
2022-08-28T20:52:04.652Z,87.55
2022-08-28T20:57:10.008Z,86.97
2022-08-28T21:02:15.058Z,86.63
2022-08-28T21:07:21.793Z,86.39
2022-08-28T21:12:25.199Z,86.72
2022-08-28T21:17:30.157Z,86.96
2022-08-28T21:22:35.233Z,86.98
2022-08-28T21:27:39.283Z,88.14
2022-08-28T21:32:42.479Z,90.00
2022-08-28T21:37:49.080Z,90.01
2022-08-28T21:42:51.952Z,90.11
2022-08-28T21:47:54.861Z,91.05
2022-08-28T21:52:59.405Z,91.19
2022-08-28T21:58:02.251Z,92.01
2022-08-28T22:03:05.411Z,92.29
2022-08-28T22:08:09.612Z,91.11
2022-08-28T22:13:14.371Z,92.19
2022-08-28T22:18:17.623Z,92.50
2022-08-28T22:23:21.921Z,94.12
2022-08-28T22:28:24.799Z,95.71
2022-08-28T22:33:27.570Z,95.22
2022-08-28T22:38:32.168Z,95.07
2022-08-28T22:43:36.162Z,96.34
2022-08-28T22:48:39.280Z,96.55
2022-08-28T22:53:44.268Z,95.81
2022-08-28T22:58:47.119Z,95.83
2022-08-28T23:03:51.159Z,97.31
2022-08-28T23:08:55.402Z,96.93
2022-08-28T23:13:58.266Z,97.13
2022-08-28T23:19:08.933Z,97.32
2022-08-28T23:24:15.568Z,96.36
2022-08-28T23:29:18.473Z,96.99
2022-08-28T23:34:22.641Z,96.56
2022-08-28T23:39:27.813Z,98.49
2022-08-28T23:44:30.656Z,98.09
2022-08-28T23:49:33.964Z,99.52
2022-08-28T23:54:45.802Z,98.67
2022-08-28T23:59:48.949Z,99.64
